This is the latest recevied weather packets stored in our database for station/object SP2FH-13. If no packets are shown the sender has not sent any weather packets the latest 10 day(s).
| Time | Temp. | Humidity | Pressure | Rain* | Wind** | Luminosity | Snow |
|---|---|---|---|---|---|---|---|
| 1778388987 | 7.22° C | 84% | 1007.4 hPa | - | - | 81 W/m² | - |
| 1778388685 | 6.67° C | 86% | 1007.4 hPa | - | - | 73 W/m² | - |
| 1778388384 | 7.22° C | 84% | 1007.4 hPa | - | - | 47 W/m² | - |
| 1778388083 | 7.22° C | 83% | 1007.5 hPa | - | - | 42 W/m² | - |
| 1778387782 | 6.67° C | 83% | 1007.6 hPa | - | - | 51 W/m² | - |
| 1778387480 | 6.67° C | 83% | 1007.7 hPa | - | - | 47 W/m² | - |
| 1778387178 | 6.11° C | 83% | 1007.7 hPa | - | - | 43 W/m² | - |
| 1778386876 | 5.56° C | 84% | 1007.7 hPa | - | - | 40 W/m² | - |
| 1778386575 | 5° C | 88% | 1007.7 hPa | - | - | 37 W/m² | - |
| 1778386273 | 4.44° C | 90% | 1007.8 hPa | - | - | 30 W/m² | - |
| 1778385972 | 5.56° C | 87% | 1007.7 hPa | - | - | 28 W/m² | - |
| 1778385671 | 5.56° C | 84% | 1007.7 hPa | - | - | 26 W/m² | - |
| 1778385370 | 5° C | 87% | 1007.7 hPa | - | - | 24 W/m² | - |
| 1778385069 | 4.44° C | 91% | 1007.6 hPa | - | - | 24 W/m² | - |
| 1778384767 | 3.89° C | 93% | 1007.7 hPa | - | - | 22 W/m² | - |
| 1778384467 | 3.89° C | 93% | 1007.7 hPa | - | - | 19 W/m² | - |
| 1778384165 | 3.33° C | 93% | 1007.6 hPa | - | - | 17 W/m² | - |
| 1778383864 | 3.33° C | 93% | 1007.5 hPa | - | - | 15 W/m² | - |
| 1778383563 | 3.33° C | 93% | 1007.5 hPa | - | - | 12 W/m² | - |
| 1778383262 | 3.33° C | 94% | 1007.5 hPa | - | - | 11 W/m² | - |
| 1778382961 | 3.33° C | 93% | 1007.6 hPa | - | - | 9 W/m² | - |
| 1778382660 | 3.33° C | 93% | 1007.7 hPa | - | - | 7 W/m² | - |
| 1778382359 | 3.33° C | 93% | 1007.7 hPa | - | - | 5 W/m² | - |
| 1778382057 | 3.33° C | 93% | 1007.7 hPa | - | - | 4 W/m² | - |
| 1778381756 | 3.33° C | 93% | 1007.7 hPa | - | - | 3 W/m² | - |
* Rain since midnight (hover to see other rain measurements)
** Current wind speed in m/s (hover to see current wind gust speed)